EPSY

Details ICAO EPSY
Name SZYMANY
Region Poland
Timezone Europe/Warsaw (UTC+1.0)
Plans Departing 35
Arriving 35
Stats Elevation 463 ft / 141 m (AMSL)
Location 53.479731° 20.936497°
Runways 1
Magnetic Variation 6.017° E
Sunrise 2017-12-18 06:49:43 UTC / 2017-12-18 07:49:43 Local
Sunset 2017-12-18 14:18:39 UTC / 2017-12-18 15:18:39 Local
Advertisement - Login to hide

Runways

ID Width Length Bearing (true) Bearing (mag) Surface Threshold Offset Overrun Length
02 197 ft / 60 m 6,556 ft / 1,998 m 18.43° 12.41° Concrete 0 ft / 0 m 0 ft / 0 m
20 197 ft / 60 m 6,556 ft / 1,998 m 198.43° 192.41° Concrete 0 ft / 0 m 0 ft / 0 m

Approach Navaids

Runway Type Ident Frequency Range Bearing (true) Bearing (mag) Slope Elevation
02 Localiser SZN 110.10 MHz 18 nm / 33 km 18.44° 12.42° - 463 ft / 141 m (AMSL)
02 Glidescope SZN 110.10 MHz 10 nm / 19 km 18.43° 12.41° 3.00° 40 ft / 12 m (AMSL)
02 DME SZN 110.10 MHz 18 nm / 33 km - - - 492 ft / 150 m (AMSL)

Map

Weather


0- 5 10 15 20 25 30 35+ Temperature / ° C

Clouds and Precipitation
Forecast for 2017-12-18 06:00 UTC. Updated 2 hours ago

Ground ~20,000 ft ~40,000 ft Winds

METAR

EPSY 180700Z VRB02KT 0400 R01/1100N FZFG BKN001 M03/M03 Q1025 R01/19//94

TAF

Not found

Frequencies

Tower 118.02 MHz SZCZYTNO INFO
Warning: Do not use this data for real-world aviation or navigation. No guarantee of current accuracy is given.